sensor_id;sensor_type;location;lat;lon;timestamp;P1;durP1;ratioP1;P2;durP2;ratioP2
18520;SDS011;9390;51.244;6.982;2023-10-31T00:01:14;11.90;;;7.43;;
18520;SDS011;9390;51.244;6.982;2023-10-31T00:03:45;12.23;;;7.50;;
18520;SDS011;9390;51.244;6.982;2023-10-31T00:06:17;12.35;;;6.53;;
18520;SDS011;9390;51.244;6.982;2023-10-31T00:08:50;12.55;;;7.68;;
18520;SDS011;9390;51.244;6.982;2023-10-31T00:13:52;11.90;;;6.55;;
18520;SDS011;9390;51.244;6.982;2023-10-31T00:16:24;15.35;;;6.55;;
18520;SDS011;9390;51.244;6.982;2023-10-31T00:18:55;11.55;;;6.55;;
18520;SDS011;9390;51.244;6.982;2023-10-31T00:21:27;11.45;;;5.97;;
18520;SDS011;9390;51.244;6.982;2023-10-31T00:24:00;10.43;;;6.15;;
18520;SDS011;9390;51.244;6.982;2023-10-31T00:26:33;11.45;;;6.70;;
18520;SDS011;9390;51.244;6.982;2023-10-31T00:29:04;12.70;;;6.25;;
18520;SDS011;9390;51.244;6.982;2023-10-31T00:31:35;11.75;;;6.97;;
18520;SDS011;9390;51.244;6.982;2023-10-31T00:34:11;12.48;;;7.05;;
18520;SDS011;9390;51.244;6.982;2023-10-31T00:36:42;12.70;;;7.13;;
18520;SDS011;9390;51.244;6.982;2023-10-31T00:39:15;12.85;;;7.47;;
18520;SDS011;9390;51.244;6.982;2023-10-31T00:41:46;11.88;;;7.40;;
18520;SDS011;9390;51.244;6.982;2023-10-31T00:44:17;15.07;;;7.47;;
18520;SDS011;9390;51.244;6.982;2023-10-31T00:46:49;14.18;;;7.80;;
18520;SDS011;9390;51.244;6.982;2023-10-31T00:49:21;12.15;;;7.55;;
18520;SDS011;9390;51.244;6.982;2023-10-31T00:51:52;12.73;;;6.30;;
18520;SDS011;9390;51.244;6.982;2023-10-31T00:54:25;12.27;;;7.55;;
18520;SDS011;9390;51.244;6.982;2023-10-31T00:56:56;11.52;;;7.53;;
18520;SDS011;9390;51.244;6.982;2023-10-31T00:59:27;12.82;;;6.95;;
18520;SDS011;9390;51.244;6.982;2023-10-31T01:01:59;11.23;;;7.00;;
18520;SDS011;9390;51.244;6.982;2023-10-31T01:04:30;13.48;;;6.55;;
18520;SDS011;9390;51.244;6.982;2023-10-31T01:07:02;11.23;;;5.70;;
18520;SDS011;9390;51.244;6.982;2023-10-31T01:09:35;10.80;;;5.47;;
18520;SDS011;9390;51.244;6.982;2023-10-31T01:12:06;11.63;;;5.88;;
18520;SDS011;9390;51.244;6.982;2023-10-31T01:14:37;12.88;;;6.07;;
18520;SDS011;9390;51.244;6.982;2023-10-31T01:17:09;9.38;;;5.10;;
18520;SDS011;9390;51.244;6.982;2023-10-31T01:19:40;10.70;;;5.00;;
18520;SDS011;9390;51.244;6.982;2023-10-31T01:22:12;8.77;;;5.10;;
18520;SDS011;9390;51.244;6.982;2023-10-31T01:24:44;10.02;;;4.63;;
18520;SDS011;9390;51.244;6.982;2023-10-31T01:27:16;10.38;;;4.22;;
18520;SDS011;9390;51.244;6.982;2023-10-31T01:29:47;8.23;;;4.53;;
18520;SDS011;9390;51.244;6.982;2023-10-31T01:32:19;10.95;;;5.03;;
18520;SDS011;9390;51.244;6.982;2023-10-31T01:34:57;8.90;;;4.82;;
18520;SDS011;9390;51.244;6.982;2023-10-31T01:37:29;10.85;;;4.82;;
18520;SDS011;9390;51.244;6.982;2023-10-31T01:40:02;10.30;;;4.53;;
18520;SDS011;9390;51.244;6.982;2023-10-31T01:42:34;10.63;;;4.85;;
18520;SDS011;9390;51.244;6.982;2023-10-31T01:45:06;10.75;;;4.72;;
18520;SDS011;9390;51.244;6.982;2023-10-31T01:47:38;7.85;;;4.13;;
18520;SDS011;9390;51.244;6.982;2023-10-31T01:50:09;10.57;;;4.53;;
18520;SDS011;9390;51.244;6.982;2023-10-31T01:52:41;12.90;;;5.50;;
18520;SDS011;9390;51.244;6.982;2023-10-31T01:55:13;13.75;;;5.75;;
18520;SDS011;9390;51.244;6.982;2023-10-31T01:57:46;17.65;;;5.43;;
18520;SDS011;9390;51.244;6.982;2023-10-31T02:00:18;15.63;;;6.30;;
18520;SDS011;9390;51.244;6.982;2023-10-31T02:02:51;14.63;;;6.35;;
18520;SDS011;9390;51.244;6.982;2023-10-31T02:05:23;14.95;;;6.60;;
18520;SDS011;9390;51.244;6.982;2023-10-31T02:07:54;19.10;;;7.15;;
18520;SDS011;9390;51.244;6.982;2023-10-31T02:10:27;15.73;;;7.22;;
18520;SDS011;9390;51.244;6.982;2023-10-31T02:12:58;16.83;;;8.50;;
18520;SDS011;9390;51.244;6.982;2023-10-31T02:15:41;15.13;;;8.02;;
18520;SDS011;9390;51.244;6.982;2023-10-31T02:18:13;19.45;;;8.75;;
18520;SDS011;9390;51.244;6.982;2023-10-31T02:20:44;21.60;;;9.60;;
18520;SDS011;9390;51.244;6.982;2023-10-31T02:23:17;23.33;;;10.05;;
18520;SDS011;9390;51.244;6.982;2023-10-31T02:25:48;19.63;;;10.20;;
18520;SDS011;9390;51.244;6.982;2023-10-31T02:28:19;24.42;;;9.95;;
18520;SDS011;9390;51.244;6.982;2023-10-31T02:30:51;18.77;;;8.95;;
18520;SDS011;9390;51.244;6.982;2023-10-31T02:33:22;16.60;;;8.48;;
18520;SDS011;9390;51.244;6.982;2023-10-31T02:35:54;21.23;;;9.00;;
18520;SDS011;9390;51.244;6.982;2023-10-31T02:38:27;22.55;;;10.43;;
18520;SDS011;9390;51.244;6.982;2023-10-31T02:40:58;27.60;;;11.23;;
18520;SDS011;9390;51.244;6.982;2023-10-31T02:43:29;33.03;;;11.55;;
18520;SDS011;9390;51.244;6.982;2023-10-31T02:46:01;32.05;;;12.85;;
18520;SDS011;9390;51.244;6.982;2023-10-31T02:48:32;26.77;;;13.55;;
18520;SDS011;9390;51.244;6.982;2023-10-31T02:51:09;29.23;;;15.00;;
18520;SDS011;9390;51.244;6.982;2023-10-31T02:53:42;30.17;;;14.57;;
18520;SDS011;9390;51.244;6.982;2023-10-31T02:56:13;35.38;;;16.17;;
18520;SDS011;9390;51.244;6.982;2023-10-31T02:58:44;30.90;;;15.88;;
18520;SDS011;9390;51.244;6.982;2023-10-31T03:01:16;34.78;;;16.15;;
18520;SDS011;9390;51.244;6.982;2023-10-31T03:03:50;33.58;;;16.13;;
18520;SDS011;9390;51.244;6.982;2023-10-31T03:06:21;33.10;;;16.42;;
18520;SDS011;9390;51.244;6.982;2023-10-31T03:08:54;36.05;;;16.95;;
18520;SDS011;9390;51.244;6.982;2023-10-31T03:11:26;38.63;;;16.80;;
18520;SDS011;9390;51.244;6.982;2023-10-31T03:13:57;39.83;;;16.47;;
18520;SDS011;9390;51.244;6.982;2023-10-31T03:16:29;31.48;;;15.40;;
18520;SDS011;9390;51.244;6.982;2023-10-31T03:19:00;39.55;;;17.10;;
18520;SDS011;9390;51.244;6.982;2023-10-31T03:21:32;33.53;;;16.15;;
18520;SDS011;9390;51.244;6.982;2023-10-31T03:24:05;30.90;;;13.80;;
18520;SDS011;9390;51.244;6.982;2023-10-31T03:26:36;29.50;;;14.07;;
18520;SDS011;9390;51.244;6.982;2023-10-31T03:29:08;31.25;;;13.98;;
18520;SDS011;9390;51.244;6.982;2023-10-31T03:31:39;29.95;;;13.82;;
18520;SDS011;9390;51.244;6.982;2023-10-31T03:34:11;30.02;;;13.18;;
18520;SDS011;9390;51.244;6.982;2023-10-31T03:36:42;29.80;;;12.88;;
18520;SDS011;9390;51.244;6.982;2023-10-31T03:39:15;32.97;;;14.35;;
18520;SDS011;9390;51.244;6.982;2023-10-31T03:41:46;27.67;;;12.38;;
18520;SDS011;9390;51.244;6.982;2023-10-31T03:44:18;26.95;;;11.45;;
18520;SDS011;9390;51.244;6.982;2023-10-31T03:46:49;25.55;;;11.43;;
18520;SDS011;9390;51.244;6.982;2023-10-31T03:49:20;22.38;;;10.10;;
18520;SDS011;9390;51.244;6.982;2023-10-31T03:51:52;25.08;;;10.13;;
18520;SDS011;9390;51.244;6.982;2023-10-31T03:54:25;22.75;;;9.25;;
18520;SDS011;9390;51.244;6.982;2023-10-31T03:56:56;24.83;;;8.75;;
18520;SDS011;9390;51.244;6.982;2023-10-31T03:59:27;21.05;;;8.82;;
18520;SDS011;9390;51.244;6.982;2023-10-31T04:01:59;24.25;;;8.30;;
18520;SDS011;9390;51.244;6.982;2023-10-31T04:04:30;15.60;;;8.05;;
18520;SDS011;9390;51.244;6.982;2023-10-31T04:07:02;14.85;;;7.53;;
18520;SDS011;9390;51.244;6.982;2023-10-31T04:09:34;19.15;;;7.57;;
18520;SDS011;9390;51.244;6.982;2023-10-31T04:12:06;17.48;;;7.63;;
18520;SDS011;9390;51.244;6.982;2023-10-31T04:14:38;17.35;;;6.55;;
18520;SDS011;9390;51.244;6.982;2023-10-31T04:17:09;16.70;;;7.25;;
18520;SDS011;9390;51.244;6.982;2023-10-31T04:19:41;14.93;;;6.70;;
18520;SDS011;9390;51.244;6.982;2023-10-31T04:22:12;22.15;;;6.93;;
18520;SDS011;9390;51.244;6.982;2023-10-31T04:24:45;15.88;;;6.97;;
18520;SDS011;9390;51.244;6.982;2023-10-31T04:27:16;19.42;;;6.80;;
18520;SDS011;9390;51.244;6.982;2023-10-31T04:29:48;14.02;;;6.20;;
18520;SDS011;9390;51.244;6.982;2023-10-31T04:32:19;17.38;;;6.68;;
18520;SDS011;9390;51.244;6.982;2023-10-31T04:34:51;15.20;;;6.57;;
18520;SDS011;9390;51.244;6.982;2023-10-31T04:37:22;20.80;;;7.30;;
18520;SDS011;9390;51.244;6.982;2023-10-31T04:39:55;15.85;;;6.85;;
18520;SDS011;9390;51.244;6.982;2023-10-31T04:42:27;16.88;;;6.45;;
18520;SDS011;9390;51.244;6.982;2023-10-31T04:44:58;14.18;;;6.53;;
18520;SDS011;9390;51.244;6.982;2023-10-31T04:47:30;18.85;;;7.43;;
18520;SDS011;9390;51.244;6.982;2023-10-31T04:50:01;20.25;;;7.25;;
18520;SDS011;9390;51.244;6.982;2023-10-31T04:52:33;16.08;;;7.65;;
18520;SDS011;9390;51.244;6.982;2023-10-31T04:55:06;16.25;;;7.10;;
18520;SDS011;9390;51.244;6.982;2023-10-31T04:57:38;16.63;;;7.35;;
18520;SDS011;9390;51.244;6.982;2023-10-31T05:00:10;18.02;;;7.70;;
18520;SDS011;9390;51.244;6.982;2023-10-31T05:02:42;19.80;;;8.52;;
18520;SDS011;9390;51.244;6.982;2023-10-31T05:05:14;14.88;;;7.63;;
18520;SDS011;9390;51.244;6.982;2023-10-31T05:07:46;14.73;;;7.50;;
18520;SDS011;9390;51.244;6.982;2023-10-31T05:10:18;15.77;;;7.85;;
18520;SDS011;9390;51.244;6.982;2023-10-31T05:12:50;15.52;;;8.65;;
18520;SDS011;9390;51.244;6.982;2023-10-31T05:15:21;16.90;;;8.48;;
18520;SDS011;9390;51.244;6.982;2023-10-31T05:17:53;18.60;;;8.85;;
18520;SDS011;9390;51.244;6.982;2023-10-31T05:20:24;17.83;;;8.98;;
18520;SDS011;9390;51.244;6.982;2023-10-31T05:22:56;17.40;;;9.52;;
18520;SDS011;9390;51.244;6.982;2023-10-31T05:25:29;20.17;;;9.73;;
18520;SDS011;9390;51.244;6.982;2023-10-31T05:28:01;19.90;;;9.25;;
18520;SDS011;9390;51.244;6.982;2023-10-31T05:30:32;20.95;;;9.93;;
18520;SDS011;9390;51.244;6.982;2023-10-31T05:33:04;22.48;;;10.07;;
18520;SDS011;9390;51.244;6.982;2023-10-31T05:35:35;18.80;;;9.77;;
18520;SDS011;9390;51.244;6.982;2023-10-31T05:38:06;19.50;;;10.48;;
18520;SDS011;9390;51.244;6.982;2023-10-31T05:40:39;19.60;;;10.10;;
18520;SDS011;9390;51.244;6.982;2023-10-31T05:43:11;19.90;;;10.55;;
18520;SDS011;9390;51.244;6.982;2023-10-31T05:45:42;21.80;;;10.50;;
18520;SDS011;9390;51.244;6.982;2023-10-31T05:48:13;20.73;;;10.48;;
18520;SDS011;9390;51.244;6.982;2023-10-31T05:50:45;21.77;;;10.55;;
18520;SDS011;9390;51.244;6.982;2023-10-31T05:53:16;20.63;;;9.98;;
18520;SDS011;9390;51.244;6.982;2023-10-31T05:55:49;24.02;;;10.70;;
18520;SDS011;9390;51.244;6.982;2023-10-31T05:58:20;21.77;;;10.55;;
18520;SDS011;9390;51.244;6.982;2023-10-31T06:00:52;19.50;;;10.43;;
18520;SDS011;9390;51.244;6.982;2023-10-31T06:03:24;25.02;;;11.50;;
18520;SDS011;9390;51.244;6.982;2023-10-31T06:05:55;22.60;;;12.05;;
18520;SDS011;9390;51.244;6.982;2023-10-31T06:08:27;24.77;;;11.93;;
18520;SDS011;9390;51.244;6.982;2023-10-31T06:11:00;24.42;;;11.95;;
18520;SDS011;9390;51.244;6.982;2023-10-31T06:13:31;26.35;;;11.90;;
18520;SDS011;9390;51.244;6.982;2023-10-31T06:16:03;21.63;;;10.95;;
18520;SDS011;9390;51.244;6.982;2023-10-31T06:18:37;20.55;;;10.18;;
18520;SDS011;9390;51.244;6.982;2023-10-31T06:21:09;22.00;;;9.90;;
18520;SDS011;9390;51.244;6.982;2023-10-31T06:23:40;21.02;;;9.65;;
18520;SDS011;9390;51.244;6.982;2023-10-31T06:26:15;19.73;;;10.32;;
18520;SDS011;9390;51.244;6.982;2023-10-31T06:28:47;20.23;;;9.48;;
18520;SDS011;9390;51.244;6.982;2023-10-31T06:31:18;16.90;;;8.63;;
18520;SDS011;9390;51.244;6.982;2023-10-31T06:33:50;22.42;;;9.38;;
18520;SDS011;9390;51.244;6.982;2023-10-31T06:36:21;19.08;;;10.05;;
18520;SDS011;9390;51.244;6.982;2023-10-31T06:38:53;18.38;;;9.20;;
18520;SDS011;9390;51.244;6.982;2023-10-31T06:41:25;18.58;;;8.65;;
18520;SDS011;9390;51.244;6.982;2023-10-31T06:43:57;21.30;;;8.70;;
18520;SDS011;9390;51.244;6.982;2023-10-31T06:46:28;19.58;;;10.27;;
18520;SDS011;9390;51.244;6.982;2023-10-31T06:49:00;20.42;;;10.25;;
18520;SDS011;9390;51.244;6.982;2023-10-31T06:51:31;24.38;;;10.57;;
18520;SDS011;9390;51.244;6.982;2023-10-31T06:54:03;22.60;;;10.98;;
18520;SDS011;9390;51.244;6.982;2023-10-31T06:56:36;23.67;;;10.80;;
18520;SDS011;9390;51.244;6.982;2023-10-31T06:59:07;25.17;;;12.30;;
18520;SDS011;9390;51.244;6.982;2023-10-31T07:01:39;22.55;;;11.73;;
18520;SDS011;9390;51.244;6.982;2023-10-31T07:04:10;22.35;;;11.75;;
18520;SDS011;9390;51.244;6.982;2023-10-31T07:06:42;27.13;;;12.32;;
18520;SDS011;9390;51.244;6.982;2023-10-31T07:09:13;25.27;;;12.40;;
18520;SDS011;9390;51.244;6.982;2023-10-31T07:11:46;30.80;;;13.15;;
18520;SDS011;9390;51.244;6.982;2023-10-31T07:14:17;31.42;;;13.68;;
18520;SDS011;9390;51.244;6.982;2023-10-31T07:16:49;31.33;;;13.23;;
18520;SDS011;9390;51.244;6.982;2023-10-31T07:19:20;33.35;;;14.75;;
18520;SDS011;9390;51.244;6.982;2023-10-31T07:21:52;28.33;;;13.75;;
18520;SDS011;9390;51.244;6.982;2023-10-31T07:24:24;31.87;;;13.03;;
18520;SDS011;9390;51.244;6.982;2023-10-31T07:26:58;24.42;;;12.48;;
18520;SDS011;9390;51.244;6.982;2023-10-31T07:29:29;26.92;;;13.05;;
18520;SDS011;9390;51.244;6.982;2023-10-31T07:32:01;30.70;;;11.88;;
18520;SDS011;9390;51.244;6.982;2023-10-31T07:34:32;27.70;;;12.38;;
18520;SDS011;9390;51.244;6.982;2023-10-31T07:37:03;26.60;;;12.85;;
18520;SDS011;9390;51.244;6.982;2023-10-31T07:39:35;24.23;;;12.15;;
18520;SDS011;9390;51.244;6.982;2023-10-31T07:42:08;26.83;;;13.20;;
18520;SDS011;9390;51.244;6.982;2023-10-31T07:44:39;27.40;;;13.70;;
18520;SDS011;9390;51.244;6.982;2023-10-31T07:47:10;25.63;;;12.52;;
18520;SDS011;9390;51.244;6.982;2023-10-31T07:49:42;27.48;;;12.93;;
18520;SDS011;9390;51.244;6.982;2023-10-31T07:52:13;31.52;;;13.80;;
18520;SDS011;9390;51.244;6.982;2023-10-31T07:54:45;25.75;;;12.00;;
18520;SDS011;9390;51.244;6.982;2023-10-31T07:57:18;27.80;;;13.73;;
18520;SDS011;9390;51.244;6.982;2023-10-31T07:59:49;28.10;;;13.73;;
18520;SDS011;9390;51.244;6.982;2023-10-31T08:02:20;26.95;;;13.38;;
18520;SDS011;9390;51.244;6.982;2023-10-31T08:04:52;23.52;;;13.25;;
18520;SDS011;9390;51.244;6.982;2023-10-31T08:07:23;24.75;;;13.07;;
18520;SDS011;9390;51.244;6.982;2023-10-31T08:09:59;28.10;;;13.07;;
18520;SDS011;9390;51.244;6.982;2023-10-31T08:12:32;23.17;;;12.85;;
18520;SDS011;9390;51.244;6.982;2023-10-31T08:15:04;27.42;;;12.88;;
18520;SDS011;9390;51.244;6.982;2023-10-31T08:17:36;26.27;;;12.30;;
18520;SDS011;9390;51.244;6.982;2023-10-31T08:20:08;28.88;;;13.57;;
18520;SDS011;9390;51.244;6.982;2023-10-31T08:22:40;28.23;;;12.73;;
18520;SDS011;9390;51.244;6.982;2023-10-31T08:25:13;28.30;;;12.23;;
18520;SDS011;9390;51.244;6.982;2023-10-31T08:27:46;27.08;;;12.80;;
18520;SDS011;9390;51.244;6.982;2023-10-31T08:32:50;27.20;;;12.10;;
18520;SDS011;9390;51.244;6.982;2023-10-31T08:35:21;29.17;;;12.32;;
18520;SDS011;9390;51.244;6.982;2023-10-31T08:37:53;25.10;;;12.63;;
18520;SDS011;9390;51.244;6.982;2023-10-31T08:40:24;25.15;;;12.05;;
18520;SDS011;9390;51.244;6.982;2023-10-31T08:42:57;24.95;;;12.98;;
18520;SDS011;9390;51.244;6.982;2023-10-31T08:45:30;30.25;;;13.43;;
18520;SDS011;9390;51.244;6.982;2023-10-31T08:48:02;26.10;;;12.98;;
18520;SDS011;9390;51.244;6.982;2023-10-31T08:50:33;28.25;;;12.98;;
18520;SDS011;9390;51.244;6.982;2023-10-31T08:53:05;23.60;;;12.07;;
18520;SDS011;9390;51.244;6.982;2023-10-31T08:55:36;28.63;;;13.15;;
18520;SDS011;9390;51.244;6.982;2023-10-31T08:58:09;25.15;;;12.00;;
18520;SDS011;9390;51.244;6.982;2023-10-31T09:00:41;29.23;;;13.02;;
18520;SDS011;9390;51.244;6.982;2023-10-31T09:03:12;24.60;;;12.55;;
18520;SDS011;9390;51.244;6.982;2023-10-31T09:05:44;23.95;;;12.32;;
18520;SDS011;9390;51.244;6.982;2023-10-31T09:08:15;25.20;;;11.95;;
18520;SDS011;9390;51.244;6.982;2023-10-31T09:10:46;23.38;;;11.85;;
18520;SDS011;9390;51.244;6.982;2023-10-31T09:13:19;24.73;;;11.38;;
18520;SDS011;9390;51.244;6.982;2023-10-31T09:15:51;24.65;;;11.23;;
18520;SDS011;9390;51.244;6.982;2023-10-31T09:18:22;23.02;;;11.20;;
18520;SDS011;9390;51.244;6.982;2023-10-31T09:20:54;23.95;;;10.98;;
18520;SDS011;9390;51.244;6.982;2023-10-31T09:23:25;19.80;;;10.40;;
18520;SDS011;9390;51.244;6.982;2023-10-31T09:25:56;19.77;;;10.15;;
18520;SDS011;9390;51.244;6.982;2023-10-31T09:28:30;18.75;;;10.05;;
18520;SDS011;9390;51.244;6.982;2023-10-31T09:31:01;23.92;;;10.65;;
18520;SDS011;9390;51.244;6.982;2023-10-31T09:33:33;19.55;;;9.50;;
18520;SDS011;9390;51.244;6.982;2023-10-31T09:36:05;19.95;;;10.20;;
18520;SDS011;9390;51.244;6.982;2023-10-31T09:38:37;19.35;;;9.77;;
18520;SDS011;9390;51.244;6.982;2023-10-31T09:41:08;19.73;;;10.38;;
18520;SDS011;9390;51.244;6.982;2023-10-31T09:43:41;21.17;;;10.40;;
18520;SDS011;9390;51.244;6.982;2023-10-31T09:46:12;18.92;;;9.07;;
18520;SDS011;9390;51.244;6.982;2023-10-31T09:48:44;23.27;;;9.73;;
18520;SDS011;9390;51.244;6.982;2023-10-31T09:51:15;25.40;;;9.95;;
18520;SDS011;9390;51.244;6.982;2023-10-31T09:53:47;19.92;;;9.48;;
18520;SDS011;9390;51.244;6.982;2023-10-31T09:56:18;21.25;;;9.23;;
18520;SDS011;9390;51.244;6.982;2023-10-31T09:58:51;16.98;;;9.02;;
18520;SDS011;9390;51.244;6.982;2023-10-31T10:01:23;18.75;;;8.52;;
18520;SDS011;9390;51.244;6.982;2023-10-31T10:03:54;16.77;;;8.80;;
18520;SDS011;9390;51.244;6.982;2023-10-31T10:06:26;19.50;;;9.20;;
18520;SDS011;9390;51.244;6.982;2023-10-31T10:08:58;16.65;;;8.13;;
18520;SDS011;9390;51.244;6.982;2023-10-31T10:11:30;16.13;;;8.25;;
18520;SDS011;9390;51.244;6.982;2023-10-31T10:14:03;16.75;;;8.52;;
18520;SDS011;9390;51.244;6.982;2023-10-31T10:16:39;14.07;;;7.20;;
18520;SDS011;9390;51.244;6.982;2023-10-31T10:19:14;19.00;;;8.10;;
18520;SDS011;9390;51.244;6.982;2023-10-31T10:21:47;14.48;;;7.68;;
18520;SDS011;9390;51.244;6.982;2023-10-31T10:24:20;15.70;;;6.88;;
18520;SDS011;9390;51.244;6.982;2023-10-31T10:26:52;15.52;;;6.72;;
18520;SDS011;9390;51.244;6.982;2023-10-31T10:29:25;16.45;;;6.47;;
18520;SDS011;9390;51.244;6.982;2023-10-31T10:34:28;14.23;;;6.97;;
18520;SDS011;9390;51.244;6.982;2023-10-31T10:36:59;14.68;;;6.25;;
18520;SDS011;9390;51.244;6.982;2023-10-31T10:39:32;10.13;;;5.47;;
18520;SDS011;9390;51.244;6.982;2023-10-31T10:42:05;13.93;;;6.43;;
18520;SDS011;9390;51.244;6.982;2023-10-31T10:44:43;13.52;;;5.63;;
18520;SDS011;9390;51.244;6.982;2023-10-31T10:47:17;10.23;;;5.05;;
18520;SDS011;9390;51.244;6.982;2023-10-31T10:49:49;10.93;;;5.18;;
18520;SDS011;9390;51.244;6.982;2023-10-31T10:52:23;12.75;;;4.90;;
18520;SDS011;9390;51.244;6.982;2023-10-31T10:55:00;12.15;;;4.38;;
18520;SDS011;9390;51.244;6.982;2023-10-31T10:57:37;10.95;;;4.90;;
18520;SDS011;9390;51.244;6.982;2023-10-31T11:00:14;10.65;;;4.30;;
18520;SDS011;9390;51.244;6.982;2023-10-31T11:02:46;11.70;;;4.55;;
18520;SDS011;9390;51.244;6.982;2023-10-31T11:05:20;9.60;;;4.18;;
18520;SDS011;9390;51.244;6.982;2023-10-31T11:07:52;12.05;;;4.65;;
18520;SDS011;9390;51.244;6.982;2023-10-31T11:12:56;11.82;;;4.68;;
18520;SDS011;9390;51.244;6.982;2023-10-31T11:15:29;8.07;;;4.00;;
18520;SDS011;9390;51.244;6.982;2023-10-31T11:18:00;10.90;;;3.72;;
18520;SDS011;9390;51.244;6.982;2023-10-31T11:20:33;9.55;;;4.22;;
18520;SDS011;9390;51.244;6.982;2023-10-31T11:23:05;7.93;;;3.75;;
18520;SDS011;9390;51.244;6.982;2023-10-31T11:25:38;9.45;;;3.80;;
18520;SDS011;9390;51.244;6.982;2023-10-31T11:28:14;9.60;;;3.83;;
18520;SDS011;9390;51.244;6.982;2023-10-31T11:30:49;7.47;;;2.95;;
18520;SDS011;9390;51.244;6.982;2023-10-31T11:33:23;7.88;;;3.38;;
18520;SDS011;9390;51.244;6.982;2023-10-31T11:35:59;8.63;;;2.90;;
18520;SDS011;9390;51.244;6.982;2023-10-31T11:38:31;6.22;;;2.85;;
18520;SDS011;9390;51.244;6.982;2023-10-31T11:41:05;7.28;;;2.97;;
18520;SDS011;9390;51.244;6.982;2023-10-31T11:43:51;10.55;;;2.95;;
18520;SDS011;9390;51.244;6.982;2023-10-31T11:46:24;8.77;;;3.20;;
18520;SDS011;9390;51.244;6.982;2023-10-31T11:48:56;8.90;;;3.28;;
18520;SDS011;9390;51.244;6.982;2023-10-31T11:51:29;8.48;;;3.33;;
18520;SDS011;9390;51.244;6.982;2023-10-31T11:54:01;5.50;;;2.80;;
18520;SDS011;9390;51.244;6.982;2023-10-31T11:56:33;8.57;;;3.03;;
18520;SDS011;9390;51.244;6.982;2023-10-31T11:59:05;5.88;;;2.72;;
18520;SDS011;9390;51.244;6.982;2023-10-31T12:01:45;8.13;;;3.10;;
18520;SDS011;9390;51.244;6.982;2023-10-31T12:04:21;6.30;;;2.92;;
18520;SDS011;9390;51.244;6.982;2023-10-31T12:06:57;8.65;;;2.78;;
18520;SDS011;9390;51.244;6.982;2023-10-31T12:09:30;8.57;;;2.95;;
18520;SDS011;9390;51.244;6.982;2023-10-31T12:12:01;6.75;;;2.80;;
18520;SDS011;9390;51.244;6.982;2023-10-31T12:14:33;8.35;;;2.72;;
18520;SDS011;9390;51.244;6.982;2023-10-31T12:17:06;6.00;;;3.00;;
18520;SDS011;9390;51.244;6.982;2023-10-31T12:19:39;5.68;;;2.90;;
18520;SDS011;9390;51.244;6.982;2023-10-31T12:22:14;11.10;;;3.33;;
18520;SDS011;9390;51.244;6.982;2023-10-31T12:24:46;6.32;;;2.90;;
18520;SDS011;9390;51.244;6.982;2023-10-31T12:27:17;7.47;;;2.97;;
18520;SDS011;9390;51.244;6.982;2023-10-31T12:29:59;6.75;;;2.65;;
18520;SDS011;9390;51.244;6.982;2023-10-31T12:32:32;7.93;;;3.05;;
18520;SDS011;9390;51.244;6.982;2023-10-31T12:35:04;6.40;;;2.78;;
18520;SDS011;9390;51.244;6.982;2023-10-31T12:37:35;5.68;;;3.00;;
18520;SDS011;9390;51.244;6.982;2023-10-31T12:40:07;7.40;;;2.80;;
18520;SDS011;9390;51.244;6.982;2023-10-31T12:45:12;5.45;;;2.50;;
18520;SDS011;9390;51.244;6.982;2023-10-31T12:47:44;6.85;;;2.67;;
18520;SDS011;9390;51.244;6.982;2023-10-31T12:50:16;6.95;;;2.90;;
18520;SDS011;9390;51.244;6.982;2023-10-31T12:52:48;6.93;;;2.38;;
18520;SDS011;9390;51.244;6.982;2023-10-31T12:55:24;5.85;;;3.08;;
18520;SDS011;9390;51.244;6.982;2023-10-31T12:57:57;4.80;;;2.28;;
18520;SDS011;9390;51.244;6.982;2023-10-31T13:00:32;5.78;;;2.50;;
18520;SDS011;9390;51.244;6.982;2023-10-31T13:03:06;7.00;;;2.55;;
18520;SDS011;9390;51.244;6.982;2023-10-31T13:05:38;5.47;;;2.63;;
18520;SDS011;9390;51.244;6.982;2023-10-31T13:08:13;5.60;;;2.45;;
18520;SDS011;9390;51.244;6.982;2023-10-31T13:10:45;6.10;;;2.30;;
18520;SDS011;9390;51.244;6.982;2023-10-31T13:13:17;5.07;;;2.45;;
18520;SDS011;9390;51.244;6.982;2023-10-31T13:15:48;4.95;;;2.25;;
18520;SDS011;9390;51.244;6.982;2023-10-31T13:18:21;5.43;;;2.05;;
18520;SDS011;9390;51.244;6.982;2023-10-31T13:20:53;6.28;;;2.15;;
18520;SDS011;9390;51.244;6.982;2023-10-31T13:23:24;8.30;;;2.22;;
18520;SDS011;9390;51.244;6.982;2023-10-31T13:25:56;4.53;;;2.85;;
18520;SDS011;9390;51.244;6.982;2023-10-31T13:28:27;5.72;;;2.03;;
18520;SDS011;9390;51.244;6.982;2023-10-31T13:31:00;6.35;;;1.88;;
18520;SDS011;9390;51.244;6.982;2023-10-31T13:33:34;5.47;;;2.10;;
18520;SDS011;9390;51.244;6.982;2023-10-31T13:36:06;7.75;;;1.90;;
18520;SDS011;9390;51.244;6.982;2023-10-31T13:38:39;4.28;;;1.90;;
18520;SDS011;9390;51.244;6.982;2023-10-31T13:41:11;3.72;;;1.80;;
18520;SDS011;9390;51.244;6.982;2023-10-31T13:43:43;5.75;;;1.83;;
18520;SDS011;9390;51.244;6.982;2023-10-31T13:46:14;3.60;;;1.60;;
18520;SDS011;9390;51.244;6.982;2023-10-31T13:48:47;4.30;;;1.73;;
18520;SDS011;9390;51.244;6.982;2023-10-31T13:51:18;5.43;;;1.98;;
18520;SDS011;9390;51.244;6.982;2023-10-31T13:53:50;6.13;;;2.13;;
18520;SDS011;9390;51.244;6.982;2023-10-31T13:56:21;6.85;;;2.03;;
18520;SDS011;9390;51.244;6.982;2023-10-31T13:58:53;5.05;;;1.83;;
18520;SDS011;9390;51.244;6.982;2023-10-31T14:01:24;8.95;;;3.45;;
18520;SDS011;9390;51.244;6.982;2023-10-31T14:03:57;5.90;;;1.60;;
18520;SDS011;9390;51.244;6.982;2023-10-31T14:06:29;8.77;;;3.65;;
18520;SDS011;9390;51.244;6.982;2023-10-31T14:11:34;4.68;;;1.60;;
18520;SDS011;9390;51.244;6.982;2023-10-31T14:14:06;8.68;;;1.80;;
18520;SDS011;9390;51.244;6.982;2023-10-31T14:16:40;8.98;;;1.60;;
18520;SDS011;9390;51.244;6.982;2023-10-31T14:19:14;9.57;;;2.53;;
18520;SDS011;9390;51.244;6.982;2023-10-31T14:21:46;3.55;;;1.27;;
18520;SDS011;9390;51.244;6.982;2023-10-31T14:24:17;4.43;;;1.50;;
18520;SDS011;9390;51.244;6.982;2023-10-31T14:26:49;3.83;;;1.27;;
18520;SDS011;9390;51.244;6.982;2023-10-31T14:29:20;3.92;;;1.60;;
18520;SDS011;9390;51.244;6.982;2023-10-31T14:31:52;4.60;;;1.33;;
18520;SDS011;9390;51.244;6.982;2023-10-31T14:34:25;6.73;;;1.90;;
18520;SDS011;9390;51.244;6.982;2023-10-31T14:36:56;3.80;;;1.30;;
18520;SDS011;9390;51.244;6.982;2023-10-31T14:39:28;4.28;;;1.55;;
18520;SDS011;9390;51.244;6.982;2023-10-31T14:42:00;3.13;;;1.35;;
18520;SDS011;9390;51.244;6.982;2023-10-31T14:44:31;3.53;;;1.33;;
18520;SDS011;9390;51.244;6.982;2023-10-31T14:47:03;4.82;;;1.65;;
18520;SDS011;9390;51.244;6.982;2023-10-31T14:49:36;4.55;;;1.40;;
18520;SDS011;9390;51.244;6.982;2023-10-31T14:52:07;3.00;;;1.20;;
18520;SDS011;9390;51.244;6.982;2023-10-31T14:54:39;5.57;;;1.45;;
18520;SDS011;9390;51.244;6.982;2023-10-31T14:57:10;9.27;;;1.67;;
18520;SDS011;9390;51.244;6.982;2023-10-31T14:59:41;5.15;;;1.20;;
18520;SDS011;9390;51.244;6.982;2023-10-31T15:02:13;6.20;;;1.73;;
18520;SDS011;9390;51.244;6.982;2023-10-31T15:04:46;6.47;;;1.52;;
18520;SDS011;9390;51.244;6.982;2023-10-31T15:07:17;7.40;;;1.40;;
18520;SDS011;9390;51.244;6.982;2023-10-31T15:09:48;5.30;;;1.50;;
18520;SDS011;9390;51.244;6.982;2023-10-31T15:12:20;9.52;;;1.90;;
18520;SDS011;9390;51.244;6.982;2023-10-31T15:14:51;6.15;;;1.90;;
18520;SDS011;9390;51.244;6.982;2023-10-31T15:17:23;7.35;;;1.83;;
18520;SDS011;9390;51.244;6.982;2023-10-31T15:19:56;7.15;;;1.77;;
18520;SDS011;9390;51.244;6.982;2023-10-31T15:22:27;3.65;;;1.60;;
18520;SDS011;9390;51.244;6.982;2023-10-31T15:24:58;9.30;;;1.60;;
18520;SDS011;9390;51.244;6.982;2023-10-31T15:27:30;4.60;;;1.55;;
18520;SDS011;9390;51.244;6.982;2023-10-31T15:30:01;8.05;;;1.80;;
18520;SDS011;9390;51.244;6.982;2023-10-31T15:32:33;5.57;;;2.05;;